createdAt,value
2023-05-16T00:01:46.482Z,3.22
2023-05-16T00:05:49.127Z,3.22
2023-05-16T00:09:51.727Z,2.97
2023-05-16T00:13:55.785Z,3.55
2023-05-16T00:17:59.460Z,2.78
2023-05-16T00:22:02.264Z,2.58
2023-05-16T00:26:05.262Z,2.70
2023-05-16T00:30:10.663Z,2.88
2023-05-16T00:34:13.306Z,2.60
2023-05-16T00:38:15.994Z,2.63
2023-05-16T00:42:20.326Z,2.50
2023-05-16T00:46:24.415Z,2.80
2023-05-16T00:50:27.293Z,2.22
2023-05-16T00:54:31.720Z,2.80
2023-05-16T00:58:34.998Z,3.30
2023-05-16T01:02:39.868Z,2.67
2023-05-16T01:06:42.889Z,3.15
2023-05-16T01:10:54.521Z,3.45
2023-05-16T01:15:07.252Z,3.05
2023-05-16T01:19:31.261Z,2.85
2023-05-16T01:23:45.385Z,3.08
2023-05-16T01:27:50.112Z,3.00
2023-05-16T01:31:52.913Z,2.92
2023-05-16T01:36:03.599Z,2.95
2023-05-16T01:40:13.401Z,3.55
2023-05-16T01:44:22.960Z,3.75
2023-05-16T01:48:32.188Z,3.58
2023-05-16T01:52:41.950Z,3.65
2023-05-16T01:56:52.740Z,3.63
2023-05-16T02:01:01.885Z,12.35
2023-05-16T02:05:04.816Z,4.07
2023-05-16T02:09:07.440Z,3.97
2023-05-16T02:13:10.082Z,4.47
2023-05-16T02:17:13.988Z,3.70
2023-05-16T02:21:16.549Z,4.30
2023-05-16T02:25:19.253Z,3.47
2023-05-16T02:29:22.155Z,4.00
2023-05-16T02:33:26.917Z,3.75
2023-05-16T02:37:29.533Z,3.42
2023-05-16T02:41:33.116Z,3.50
2023-05-16T02:45:35.729Z,3.65
2023-05-16T02:49:39.756Z,3.83
2023-05-16T02:53:42.355Z,3.90
2023-05-16T02:57:45.024Z,3.40
2023-05-16T03:01:47.746Z,18.10
2023-05-16T03:05:52.498Z,4.30
2023-05-16T03:09:55.127Z,3.22
2023-05-16T03:14:01.557Z,2.67
2023-05-16T03:18:05.193Z,2.80
2023-05-16T03:22:09.238Z,2.88
2023-05-16T03:26:11.941Z,3.00
2023-05-16T03:30:14.775Z,3.60
2023-05-16T03:34:17.439Z,2.85
2023-05-16T03:38:21.561Z,3.17
2023-05-16T03:42:24.875Z,3.15
2023-05-16T03:46:27.589Z,3.30
2023-05-16T03:50:30.316Z,3.28
2023-05-16T03:54:34.372Z,3.15
2023-05-16T03:58:37.132Z,3.63
2023-05-16T04:02:41.491Z,3.22
2023-05-16T04:06:44.186Z,3.47
2023-05-16T04:10:48.152Z,3.38
2023-05-16T04:14:50.805Z,3.13
2023-05-16T04:18:53.489Z,3.03
2023-05-16T04:22:56.306Z,3.30
2023-05-16T04:27:01.177Z,2.83
2023-05-16T04:31:04.033Z,3.22
2023-05-16T04:35:09.688Z,3.22
2023-05-16T04:39:12.390Z,3.70
2023-05-16T04:43:16.400Z,3.63
2023-05-16T04:47:19.136Z,3.17
2023-05-16T04:51:21.853Z,3.22
2023-05-16T04:55:25.281Z,3.22
2023-05-16T04:59:30.151Z,3.10
2023-05-16T05:03:32.790Z,3.75
2023-05-16T05:07:35.421Z,3.75
2023-05-16T05:11:38.080Z,3.33
2023-05-16T05:15:42.122Z,3.58
2023-05-16T05:19:45.023Z,3.47
2023-05-16T05:23:49.634Z,3.90
2023-05-16T05:27:52.408Z,3.50
2023-05-16T05:31:56.390Z,3.47
2023-05-16T05:35:59.539Z,2.67
2023-05-16T05:40:03.233Z,3.53
2023-05-16T05:44:06.336Z,3.47
2023-05-16T05:48:11.279Z,3.55
2023-05-16T05:52:14.649Z,4.70
2023-05-16T05:56:17.409Z,3.70
2023-05-16T06:00:20.594Z,4.00
2023-05-16T06:04:24.558Z,3.72
2023-05-16T06:08:27.447Z,3.83
2023-05-16T06:12:30.211Z,4.00
2023-05-16T06:16:32.899Z,4.10
2023-05-16T06:20:37.358Z,4.00
2023-05-16T06:24:40.002Z,3.88
2023-05-16T06:28:43.134Z,3.83
2023-05-16T06:32:45.769Z,4.10
2023-05-16T06:36:49.821Z,4.15
2023-05-16T06:40:52.573Z,3.80
2023-05-16T06:44:55.395Z,3.85
2023-05-16T06:48:58.441Z,3.85
2023-05-16T06:53:04.970Z,3.78
2023-05-16T06:57:08.615Z,3.90
2023-05-16T07:01:11.453Z,4.10
2023-05-16T07:05:14.201Z,3.83
2023-05-16T07:09:18.329Z,3.92
2023-05-16T07:13:21.484Z,4.15
2023-05-16T07:17:24.279Z,3.95
2023-05-16T07:21:27.024Z,4.28
2023-05-16T07:25:31.076Z,4.45
2023-05-16T07:29:33.730Z,4.03
2023-05-16T07:33:36.418Z,3.95
2023-05-16T07:37:41.555Z,4.45
2023-05-16T07:41:45.526Z,4.55
2023-05-16T07:45:48.205Z,3.95
2023-05-16T07:49:50.958Z,4.38
2023-05-16T07:53:53.638Z,4.07
2023-05-16T07:57:57.724Z,4.40
2023-05-16T08:02:00.555Z,3.85
2023-05-16T08:06:04.256Z,3.90
2023-05-16T08:10:08.114Z,3.65
2023-05-16T08:14:12.473Z,3.90
2023-05-16T08:18:16.446Z,3.72
2023-05-16T08:22:19.316Z,3.97
2023-05-16T08:26:22.665Z,3.88
2023-05-16T08:30:27.290Z,5.78
2023-05-16T08:34:31.892Z,4.32
2023-05-16T08:38:34.559Z,4.38
2023-05-16T08:42:38.086Z,4.38
2023-05-16T08:46:43.100Z,6.07
2023-05-16T08:50:45.788Z,4.45
2023-05-16T08:55:05.672Z,5.05
2023-05-16T08:59:13.116Z,4.50
2023-05-16T09:03:17.470Z,4.35
2023-05-16T09:07:21.076Z,4.43
2023-05-16T09:11:23.942Z,4.18
2023-05-16T09:15:33.066Z,4.28
2023-05-16T09:19:42.218Z,4.68
2023-05-16T09:23:46.521Z,4.30
2023-05-16T09:27:49.553Z,4.20
2023-05-16T09:31:52.265Z,3.63
2023-05-16T09:36:00.648Z,4.18
2023-05-16T09:40:05.107Z,4.15
2023-05-16T09:44:08.174Z,4.20
2023-05-16T09:48:13.956Z,3.92
2023-05-16T09:52:19.643Z,4.10
2023-05-16T09:56:22.579Z,4.00
2023-05-16T10:00:31.211Z,4.18
2023-05-16T10:04:34.888Z,4.95
2023-05-16T10:08:42.841Z,4.10
2023-05-16T10:12:47.045Z,4.05
2023-05-16T10:16:51.079Z,3.63
2023-05-16T10:20:56.397Z,4.57
2023-05-16T10:25:09.424Z,4.10
2023-05-16T10:29:13.005Z,3.97
2023-05-16T10:33:17.694Z,3.72
2023-05-16T10:37:21.035Z,3.83
2023-05-16T10:41:25.591Z,4.68
2023-05-16T10:45:29.293Z,4.32
2023-05-16T10:49:32.477Z,3.75
2023-05-16T10:53:37.055Z,4.18
2023-05-16T10:57:41.098Z,4.13
2023-05-16T11:01:43.826Z,4.38
2023-05-16T11:05:54.053Z,3.90
2023-05-16T11:10:10.951Z,3.70
2023-05-16T11:14:22.058Z,4.18
2023-05-16T11:18:24.991Z,4.13
2023-05-16T11:22:29.523Z,3.45
2023-05-16T11:26:32.971Z,3.30
2023-05-16T11:30:37.780Z,3.45
2023-05-16T11:34:41.118Z,4.30
2023-05-16T11:38:44.127Z,3.38
2023-05-16T11:42:48.622Z,3.83
2023-05-16T11:46:52.799Z,2.85
2023-05-16T11:50:55.547Z,3.63
2023-05-16T11:55:01.404Z,2.42
2023-05-16T12:03:09.078Z,2.53
2023-05-16T12:07:11.762Z,2.50
2023-05-16T12:11:14.510Z,2.65
2023-05-16T12:15:17.485Z,2.10
2023-05-16T12:19:22.525Z,3.08
2023-05-16T12:23:27.978Z,2.90
2023-05-16T12:27:30.643Z,2.65
2023-05-16T12:31:38.211Z,3.35
2023-05-16T12:35:44.712Z,2.72
2023-05-16T12:39:48.313Z,3.33
2023-05-16T12:43:51.350Z,3.03
2023-05-16T12:47:54.116Z,3.33
2023-05-16T12:52:05.636Z,3.08
2023-05-16T12:56:08.465Z,3.05
2023-05-16T13:00:13.009Z,3.45
2023-05-16T13:04:19.134Z,2.80
2023-05-16T13:08:23.616Z,2.92
2023-05-16T13:12:27.180Z,3.17
2023-05-16T13:16:29.930Z,2.63
2023-05-16T13:20:32.652Z,3.50
2023-05-16T13:24:37.013Z,3.50
2023-05-16T13:28:39.634Z,3.60
2023-05-16T13:32:42.634Z,3.60
2023-05-16T13:40:53.510Z,3.80
2023-05-16T13:44:56.200Z,3.65
2023-05-16T13:49:00.600Z,3.63
2023-05-16T13:53:04.959Z,3.35
2023-05-16T13:57:11.774Z,3.97
2023-05-16T14:01:14.787Z,3.80
2023-05-16T14:05:17.557Z,4.30
2023-05-16T14:09:20.494Z,3.35
2023-05-16T14:13:24.648Z,3.50
2023-05-16T14:17:27.479Z,3.65
2023-05-16T14:21:30.198Z,4.35
2023-05-16T14:25:33.096Z,4.88
2023-05-16T14:29:37.255Z,4.35
2023-05-16T14:33:41.062Z,4.65
2023-05-16T14:37:43.774Z,4.40
2023-05-16T14:41:46.887Z,4.35
2023-05-16T14:45:51.023Z,4.80
2023-05-16T14:49:54.381Z,4.95
2023-05-16T14:53:57.108Z,4.90
2023-05-16T14:58:00.218Z,4.32
2023-05-16T15:02:04.611Z,3.85
2023-05-16T15:06:07.940Z,3.40
2023-05-16T15:10:11.480Z,2.85
2023-05-16T15:14:14.164Z,3.17
2023-05-16T15:18:18.190Z,3.15
2023-05-16T15:22:20.904Z,2.53
2023-05-16T15:26:23.639Z,2.80
2023-05-16T15:30:26.402Z,3.70
2023-05-16T15:34:30.463Z,3.60
2023-05-16T15:38:33.261Z,4.28
2023-05-16T15:42:36.062Z,4.55
2023-05-16T15:46:38.899Z,4.45
2023-05-16T15:50:43.406Z,3.45
2023-05-16T15:54:46.016Z,4.05
2023-05-16T15:58:48.744Z,3.70
2023-05-16T16:02:51.730Z,3.08
2023-05-16T16:06:56.200Z,3.17
2023-05-16T16:10:58.829Z,3.85
2023-05-16T16:15:02.358Z,3.10
2023-05-16T16:19:05.080Z,2.47
2023-05-16T16:23:09.130Z,2.33
2023-05-16T16:27:11.825Z,2.13
2023-05-16T16:31:14.641Z,2.67
2023-05-16T16:35:18.124Z,2.80
2023-05-16T16:39:22.910Z,2.42
2023-05-16T16:43:25.640Z,2.42
2023-05-16T16:47:28.583Z,2.95
2023-05-16T16:51:32.203Z,2.60
2023-05-16T16:55:39.336Z,2.55
2023-05-16T16:59:46.378Z,2.17
2023-05-16T17:03:49.752Z,2.42
2023-05-16T17:07:52.990Z,2.45
2023-05-16T17:11:57.591Z,2.20
2023-05-16T17:16:00.916Z,2.40
2023-05-16T17:20:07.277Z,3.00
2023-05-16T17:24:10.760Z,2.05
2023-05-16T17:28:14.943Z,2.03
2023-05-16T17:32:19.284Z,2.45
2023-05-16T17:36:22.182Z,2.50
2023-05-16T17:40:25.629Z,2.63
2023-05-16T17:44:29.608Z,2.25
2023-05-16T17:48:32.516Z,2.08
2023-05-16T17:52:35.271Z,1.95
2023-05-16T17:56:37.880Z,2.28
2023-05-16T18:00:42.178Z,2.45
2023-05-16T18:04:44.955Z,2.20
2023-05-16T18:08:47.583Z,1.90
2023-05-16T18:12:50.442Z,1.90
2023-05-16T18:16:54.710Z,2.03
2023-05-16T18:20:59.192Z,1.45
2023-05-16T18:25:01.887Z,1.50
2023-05-16T18:29:04.693Z,1.60
2023-05-16T18:33:08.848Z,1.90
2023-05-16T18:37:11.581Z,1.50
2023-05-16T18:41:14.458Z,2.10
2023-05-16T18:45:17.182Z,1.98
2023-05-16T18:49:21.863Z,1.80
2023-05-16T18:53:24.560Z,1.88
2023-05-16T18:57:27.401Z,1.70
2023-05-16T19:01:30.213Z,1.55
2023-05-16T19:05:34.773Z,1.55
2023-05-16T19:09:37.929Z,1.38
2023-05-16T19:13:40.817Z,1.23
2023-05-16T19:17:43.906Z,1.55
2023-05-16T19:21:48.959Z,1.05
2023-05-16T19:25:51.696Z,1.95
2023-05-16T19:29:54.306Z,1.42
2023-05-16T19:33:57.308Z,1.40
2023-05-16T19:38:01.682Z,1.15
2023-05-16T19:42:07.462Z,1.13
2023-05-16T19:46:10.580Z,1.30
2023-05-16T19:50:13.255Z,1.20
2023-05-16T19:54:17.368Z,1.02
2023-05-16T19:58:20.041Z,1.02
2023-05-16T20:02:24.447Z,1.15
2023-05-16T20:06:27.504Z,1.17
2023-05-16T20:10:31.516Z,1.10
2023-05-16T20:14:34.190Z,1.00
2023-05-16T20:18:37.234Z,1.42
2023-05-16T20:22:41.509Z,1.42
2023-05-16T20:26:45.756Z,1.00
2023-05-16T20:30:48.483Z,0.95
2023-05-16T20:34:51.128Z,1.55
2023-05-16T20:38:53.794Z,1.23
2023-05-16T20:42:57.859Z,1.55
2023-05-16T20:47:00.531Z,1.38
2023-05-16T20:51:03.837Z,0.90
2023-05-16T20:55:07.466Z,1.42
2023-05-16T20:59:11.474Z,1.38
2023-05-16T21:03:14.835Z,1.70
2023-05-16T21:07:17.654Z,1.30
2023-05-16T21:11:21.783Z,1.20
2023-05-16T21:15:26.221Z,1.00
2023-05-16T21:19:33.952Z,1.13
2023-05-16T21:23:36.671Z,1.10
2023-05-16T21:27:41.740Z,1.02
2023-05-16T21:31:45.779Z,0.85
2023-05-16T21:35:48.428Z,0.95
2023-05-16T21:39:51.126Z,1.30
2023-05-16T21:43:53.814Z,1.08
2023-05-16T21:47:58.078Z,1.05
2023-05-16T21:52:01.048Z,1.10
2023-05-16T21:56:04.107Z,1.00
2023-05-16T22:00:09.972Z,1.30
2023-05-16T22:04:14.689Z,1.38
2023-05-16T22:08:17.849Z,2.00
2023-05-16T22:12:21.129Z,1.23
2023-05-16T22:16:26.765Z,1.17
2023-05-16T22:20:30.791Z,1.08
2023-05-16T22:24:33.449Z,1.52
2023-05-16T22:28:36.117Z,1.00
2023-05-16T22:32:38.925Z,1.20
2023-05-16T22:36:43.154Z,1.13
2023-05-16T22:40:46.334Z,1.05
2023-05-16T22:44:49.048Z,1.30
2023-05-16T22:48:51.768Z,1.00
2023-05-16T22:52:55.830Z,1.02
2023-05-16T22:56:58.475Z,0.98
2023-05-16T23:01:04.422Z,1.20
2023-05-16T23:05:08.219Z,1.80
2023-05-16T23:09:12.217Z,1.50
2023-05-16T23:13:14.997Z,1.20
2023-05-16T23:17:17.674Z,0.70
2023-05-16T23:21:20.308Z,1.40
2023-05-16T23:25:24.616Z,1.05
2023-05-16T23:29:27.310Z,0.90
2023-05-16T23:33:29.975Z,0.88
2023-05-16T23:37:32.648Z,1.25
2023-05-16T23:41:36.640Z,0.80
2023-05-16T23:45:39.286Z,0.85
2023-05-16T23:49:41.953Z,0.80
2023-05-16T23:53:44.649Z,1.08
2023-05-16T23:57:48.640Z,0.90
